Terminal Aerodrome Forecast
Issued by NWS Cleveland, OH

Home | Current Version | Previous Version | Graphics & Text | Print | Product List | Glossary On
Versions: 1 2 3 4 5 6 7 8 9 10 11 12 13 14 15 16 17
000
FTUS41 KCLE 140413 AAA
TAFERI
TAF AMD
KERI 140413Z 1404/1424 34004KT P6SM SCT025 BKN250
      TEMPO 1404/1408 BKN025
     FM140800 09006KT P6SM BKN120 OVC250
     FM141800 33004KT P6SM OVC120=

USA.gov is the U.S. government's official web portal to all federal, state and local government web resources and services.